sensor_id;sensor_type;location;lat;lon;timestamp;pressure;altitude;pressure_sealevel;temperature;humidity
40117;BME280;25829;50.228;18.936;2023-07-09T00:02:04;98987.31;;;14.91;60.55
40117;BME280;25829;50.228;18.936;2023-07-09T00:05:07;98986.94;;;14.88;60.39
40117;BME280;25829;50.228;18.936;2023-07-09T00:08:28;98993.50;;;14.85;61.17
40117;BME280;25829;50.228;18.936;2023-07-09T00:11:29;98995.44;;;14.78;60.45
40117;BME280;25829;50.228;18.936;2023-07-09T00:17:33;98988.22;;;14.67;60.32
40117;BME280;25829;50.228;18.936;2023-07-09T00:20:34;98981.50;;;14.64;60.88
40117;BME280;25829;50.228;18.936;2023-07-09T00:23:35;98985.63;;;14.60;60.96
40117;BME280;25829;50.228;18.936;2023-07-09T00:26:40;98995.50;;;14.53;60.61
40117;BME280;25829;50.228;18.936;2023-07-09T00:29:44;98995.94;;;14.50;60.95
40117;BME280;25829;50.228;18.936;2023-07-09T00:32:44;98983.94;;;14.47;61.23
40117;BME280;25829;50.228;18.936;2023-07-09T00:35:46;98986.00;;;14.45;61.33
40117;BME280;25829;50.228;18.936;2023-07-09T00:38:49;98985.63;;;14.42;61.60
40117;BME280;25829;50.228;18.936;2023-07-09T00:41:51;98988.72;;;14.38;61.70
40117;BME280;25829;50.228;18.936;2023-07-09T00:44:54;98984.06;;;14.34;61.42
40117;BME280;25829;50.228;18.936;2023-07-09T00:47:58;98978.00;;;14.27;61.42
40117;BME280;25829;50.228;18.936;2023-07-09T00:51:01;98979.41;;;14.23;61.55
40117;BME280;25829;50.228;18.936;2023-07-09T00:54:08;98982.06;;;14.23;61.59
40117;BME280;25829;50.228;18.936;2023-07-09T00:57:17;98986.00;;;14.20;61.73
40117;BME280;25829;50.228;18.936;2023-07-09T01:00:19;98973.97;;;14.18;61.66
40117;BME280;25829;50.228;18.936;2023-07-09T01:03:25;98978.47;;;14.17;61.84
40117;BME280;25829;50.228;18.936;2023-07-09T01:06:41;98973.97;;;14.18;62.59
40117;BME280;25829;50.228;18.936;2023-07-09T01:09:43;98973.78;;;14.12;62.37
40117;BME280;25829;50.228;18.936;2023-07-09T01:12:45;98974.84;;;14.11;62.52
40117;BME280;25829;50.228;18.936;2023-07-09T01:15:47;98976.91;;;14.09;62.13
40117;BME280;25829;50.228;18.936;2023-07-09T01:18:51;98975.38;;;13.95;62.23
40117;BME280;25829;50.228;18.936;2023-07-09T01:21:57;98977.16;;;13.76;62.52
40117;BME280;25829;50.228;18.936;2023-07-09T01:25:06;98974.94;;;13.73;62.83
40117;BME280;25829;50.228;18.936;2023-07-09T01:28:07;98966.41;;;13.71;63.29
40117;BME280;25829;50.228;18.936;2023-07-09T01:31:08;98974.38;;;13.71;63.57
40117;BME280;25829;50.228;18.936;2023-07-09T01:34:10;98975.38;;;13.70;63.27
40117;BME280;25829;50.228;18.936;2023-07-09T01:37:12;98972.59;;;13.58;63.47
40117;BME280;25829;50.228;18.936;2023-07-09T01:40:16;98982.25;;;13.46;63.38
40117;BME280;25829;50.228;18.936;2023-07-09T01:43:17;98982.78;;;13.30;63.99
40117;BME280;25829;50.228;18.936;2023-07-09T01:46:17;98983.44;;;13.12;63.87
40117;BME280;25829;50.228;18.936;2023-07-09T01:49:18;98994.88;;;13.06;64.12
40117;BME280;25829;50.228;18.936;2023-07-09T01:52:21;98994.06;;;13.05;63.85
40117;BME280;25829;50.228;18.936;2023-07-09T01:55:26;98997.94;;;13.09;63.81
40117;BME280;25829;50.228;18.936;2023-07-09T01:58:28;98997.94;;;13.16;63.83
40117;BME280;25829;50.228;18.936;2023-07-09T02:01:32;98987.72;;;13.13;63.63
40117;BME280;25829;50.228;18.936;2023-07-09T02:04:36;98996.66;;;13.18;63.96
40117;BME280;25829;50.228;18.936;2023-07-09T02:07:36;99004.19;;;13.22;64.26
40117;BME280;25829;50.228;18.936;2023-07-09T02:10:37;98988.91;;;13.24;64.20
40117;BME280;25829;50.228;18.936;2023-07-09T02:13:38;98987.06;;;13.24;64.08
40117;BME280;25829;50.228;18.936;2023-07-09T02:16:39;98993.00;;;13.26;64.53
40117;BME280;25829;50.228;18.936;2023-07-09T02:19:40;98996.22;;;13.28;64.43
40117;BME280;25829;50.228;18.936;2023-07-09T02:22:41;98995.19;;;13.29;64.33
40117;BME280;25829;50.228;18.936;2023-07-09T02:25:42;98997.41;;;13.32;64.13
40117;BME280;25829;50.228;18.936;2023-07-09T02:28:42;99001.50;;;13.35;63.80
40117;BME280;25829;50.228;18.936;2023-07-09T02:31:44;99002.53;;;13.34;63.97
40117;BME280;25829;50.228;18.936;2023-07-09T02:34:46;98997.84;;;13.29;63.89
40117;BME280;25829;50.228;18.936;2023-07-09T02:37:49;98996.44;;;13.27;64.22
40117;BME280;25829;50.228;18.936;2023-07-09T02:40:50;99000.09;;;13.26;64.23
40117;BME280;25829;50.228;18.936;2023-07-09T02:43:51;98998.91;;;13.22;64.06
40117;BME280;25829;50.228;18.936;2023-07-09T02:46:53;98999.97;;;13.07;63.96
40117;BME280;25829;50.228;18.936;2023-07-09T02:49:55;98995.91;;;12.98;64.22
40117;BME280;25829;50.228;18.936;2023-07-09T02:52:55;98994.53;;;12.95;64.32
40117;BME280;25829;50.228;18.936;2023-07-09T02:55:56;98995.75;;;12.93;64.67
40117;BME280;25829;50.228;18.936;2023-07-09T02:58:57;98999.00;;;12.95;64.21
40117;BME280;25829;50.228;18.936;2023-07-09T03:01:59;99004.72;;;12.92;64.23
40117;BME280;25829;50.228;18.936;2023-07-09T03:05:00;99002.09;;;12.85;64.32
40117;BME280;25829;50.228;18.936;2023-07-09T03:08:01;99005.97;;;12.83;64.12
40117;BME280;25829;50.228;18.936;2023-07-09T03:11:13;99020.22;;;12.88;64.70
40117;BME280;25829;50.228;18.936;2023-07-09T03:14:14;99013.66;;;12.91;64.48
40117;BME280;25829;50.228;18.936;2023-07-09T03:17:15;99011.63;;;12.93;64.56
40117;BME280;25829;50.228;18.936;2023-07-09T03:20:16;99018.34;;;12.95;64.48
40117;BME280;25829;50.228;18.936;2023-07-09T03:23:17;99005.91;;;12.96;64.40
40117;BME280;25829;50.228;18.936;2023-07-09T03:26:18;99011.38;;;13.01;64.84
40117;BME280;25829;50.228;18.936;2023-07-09T03:29:19;99011.59;;;13.06;64.91
40117;BME280;25829;50.228;18.936;2023-07-09T03:32:19;99014.63;;;13.10;65.16
40117;BME280;25829;50.228;18.936;2023-07-09T03:35:20;99017.88;;;13.12;65.19
40117;BME280;25829;50.228;18.936;2023-07-09T03:38:21;99020.56;;;13.05;65.37
40117;BME280;25829;50.228;18.936;2023-07-09T03:41:22;99015.72;;;12.95;65.59
40117;BME280;25829;50.228;18.936;2023-07-09T03:44:23;99017.75;;;12.93;65.30
40117;BME280;25829;50.228;18.936;2023-07-09T03:47:23;99018.75;;;12.99;65.68
40117;BME280;25829;50.228;18.936;2023-07-09T03:50:24;99016.06;;;13.06;65.33
40117;BME280;25829;50.228;18.936;2023-07-09T03:53:25;99017.31;;;13.03;65.63
40117;BME280;25829;50.228;18.936;2023-07-09T03:56:26;99018.50;;;13.07;65.81
40117;BME280;25829;50.228;18.936;2023-07-09T03:59:26;99012.16;;;13.15;65.74
40117;BME280;25829;50.228;18.936;2023-07-09T04:02:27;99016.00;;;13.26;65.40
40117;BME280;25829;50.228;18.936;2023-07-09T04:05:28;99011.94;;;13.30;65.77
40117;BME280;25829;50.228;18.936;2023-07-09T04:08:29;99016.97;;;13.38;66.21
40117;BME280;25829;50.228;18.936;2023-07-09T04:24:48;99016.94;;;13.76;66.67
40117;BME280;25829;50.228;18.936;2023-07-09T04:27:50;99019.31;;;13.84;66.48
40117;BME280;25829;50.228;18.936;2023-07-09T04:30:51;99016.63;;;13.91;66.50
40117;BME280;25829;50.228;18.936;2023-07-09T04:33:52;99014.72;;;13.98;66.82
40117;BME280;25829;50.228;18.936;2023-07-09T04:36:56;99016.47;;;14.11;66.73
40117;BME280;25829;50.228;18.936;2023-07-09T04:39:57;99015.38;;;14.19;66.69
40117;BME280;25829;50.228;18.936;2023-07-09T04:42:58;99012.50;;;14.27;66.95
40117;BME280;25829;50.228;18.936;2023-07-09T04:52:46;99027.06;;;14.61;67.26
40117;BME280;25829;50.228;18.936;2023-07-09T04:55:47;99028.41;;;14.70;67.22
40117;BME280;25829;50.228;18.936;2023-07-09T04:58:49;99027.22;;;14.84;67.06
40117;BME280;25829;50.228;18.936;2023-07-09T05:01:50;99029.53;;;14.99;66.91
40117;BME280;25829;50.228;18.936;2023-07-09T05:04:51;99031.56;;;15.16;66.79
40117;BME280;25829;50.228;18.936;2023-07-09T05:07:51;99031.00;;;15.32;66.39
40117;BME280;25829;50.228;18.936;2023-07-09T05:10:52;99030.38;;;15.48;66.02
40117;BME280;25829;50.228;18.936;2023-07-09T05:13:53;99025.25;;;15.65;65.96
40117;BME280;25829;50.228;18.936;2023-07-09T05:16:54;99036.88;;;15.83;65.67
40117;BME280;25829;50.228;18.936;2023-07-09T05:19:55;99028.09;;;15.94;66.57
40117;BME280;25829;50.228;18.936;2023-07-09T05:22:55;99043.25;;;16.05;66.32
40117;BME280;25829;50.228;18.936;2023-07-09T05:26:00;99029.75;;;16.18;65.80
40117;BME280;25829;50.228;18.936;2023-07-09T05:29:03;99041.56;;;16.34;65.71
40117;BME280;25829;50.228;18.936;2023-07-09T05:32:06;99045.88;;;16.47;65.31
40117;BME280;25829;50.228;18.936;2023-07-09T05:35:07;99049.13;;;16.61;65.04
40117;BME280;25829;50.228;18.936;2023-07-09T05:38:08;99053.16;;;16.75;64.42
40117;BME280;25829;50.228;18.936;2023-07-09T05:41:09;99051.66;;;16.91;63.70
40117;BME280;25829;50.228;18.936;2023-07-09T05:44:10;99055.75;;;17.10;63.11
40117;BME280;25829;50.228;18.936;2023-07-09T05:47:11;99051.13;;;17.29;62.63
40117;BME280;25829;50.228;18.936;2023-07-09T05:50:11;99054.66;;;17.47;62.19
40117;BME280;25829;50.228;18.936;2023-07-09T05:53:12;99053.06;;;17.62;61.50
40117;BME280;25829;50.228;18.936;2023-07-09T05:56:13;99051.50;;;17.78;61.05
40117;BME280;25829;50.228;18.936;2023-07-09T05:59:13;99050.13;;;17.92;60.98
40117;BME280;25829;50.228;18.936;2023-07-09T06:02:16;99060.53;;;18.06;60.55
40117;BME280;25829;50.228;18.936;2023-07-09T06:05:18;99051.63;;;18.17;60.40
40117;BME280;25829;50.228;18.936;2023-07-09T06:08:20;99053.19;;;18.30;60.28
40117;BME280;25829;50.228;18.936;2023-07-09T06:11:21;99057.41;;;18.43;60.08
40117;BME280;25829;50.228;18.936;2023-07-09T06:14:22;99051.69;;;18.56;59.92
40117;BME280;25829;50.228;18.936;2023-07-09T06:17:23;99058.56;;;18.69;59.45
40117;BME280;25829;50.228;18.936;2023-07-09T06:20:23;99052.06;;;18.81;59.07
40117;BME280;25829;50.228;18.936;2023-07-09T06:23:24;99056.03;;;18.96;58.60
40117;BME280;25829;50.228;18.936;2023-07-09T06:26:25;99052.97;;;19.09;58.51
40117;BME280;25829;50.228;18.936;2023-07-09T06:29:26;99059.63;;;19.28;58.12
40117;BME280;25829;50.228;18.936;2023-07-09T06:32:27;99049.72;;;19.51;57.69
40117;BME280;25829;50.228;18.936;2023-07-09T06:35:27;99054.31;;;19.77;57.34
40117;BME280;25829;50.228;18.936;2023-07-09T06:38:28;99051.13;;;20.13;56.92
40117;BME280;25829;50.228;18.936;2023-07-09T06:41:32;99054.75;;;20.66;56.44
40117;BME280;25829;50.228;18.936;2023-07-09T06:44:40;99055.22;;;21.10;55.84
40117;BME280;25829;50.228;18.936;2023-07-09T06:47:40;99059.38;;;21.38;54.73
40117;BME280;25829;50.228;18.936;2023-07-09T06:50:41;99052.47;;;21.58;54.14
40117;BME280;25829;50.228;18.936;2023-07-09T06:53:42;99057.06;;;21.78;53.97
40117;BME280;25829;50.228;18.936;2023-07-09T06:56:44;99054.69;;;21.97;53.57
40117;BME280;25829;50.228;18.936;2023-07-09T06:59:45;99042.34;;;22.11;52.50
40117;BME280;25829;50.228;18.936;2023-07-09T07:06:21;99046.34;;;22.29;51.81
40117;BME280;25829;50.228;18.936;2023-07-09T07:09:25;99042.84;;;22.38;51.31
40117;BME280;25829;50.228;18.936;2023-07-09T07:12:28;99046.59;;;22.58;51.62
40117;BME280;25829;50.228;18.936;2023-07-09T07:15:29;99045.75;;;22.78;51.67
40117;BME280;25829;50.228;18.936;2023-07-09T07:18:30;99051.06;;;22.98;51.00
40117;BME280;25829;50.228;18.936;2023-07-09T07:21:31;99047.50;;;23.13;50.07
40117;BME280;25829;50.228;18.936;2023-07-09T07:24:32;99038.84;;;23.31;49.29
40117;BME280;25829;50.228;18.936;2023-07-09T07:27:33;99046.59;;;23.48;48.88
40117;BME280;25829;50.228;18.936;2023-07-09T07:30:33;99035.44;;;23.65;48.11
40117;BME280;25829;50.228;18.936;2023-07-09T07:33:35;99036.72;;;23.73;47.86
40117;BME280;25829;50.228;18.936;2023-07-09T07:40:09;99044.97;;;23.87;47.42
40117;BME280;25829;50.228;18.936;2023-07-09T07:43:10;99044.66;;;23.93;47.20
40117;BME280;25829;50.228;18.936;2023-07-09T07:46:11;99045.44;;;23.99;46.97
40117;BME280;25829;50.228;18.936;2023-07-09T07:49:12;99042.19;;;24.02;47.15
40117;BME280;25829;50.228;18.936;2023-07-09T07:52:13;99041.06;;;24.08;46.68
40117;BME280;25829;50.228;18.936;2023-07-09T07:55:13;99037.50;;;24.13;46.80
40117;BME280;25829;50.228;18.936;2023-07-09T07:58:14;99043.69;;;24.18;46.38
40117;BME280;25829;50.228;18.936;2023-07-09T08:01:15;99039.31;;;24.22;46.21
40117;BME280;25829;50.228;18.936;2023-07-09T08:04:16;99044.63;;;24.33;45.98
40117;BME280;25829;50.228;18.936;2023-07-09T08:07:18;99035.34;;;24.44;45.71
40117;BME280;25829;50.228;18.936;2023-07-09T08:10:19;99040.38;;;24.56;45.61
40117;BME280;25829;50.228;18.936;2023-07-09T08:13:20;99036.50;;;24.62;45.25
40117;BME280;25829;50.228;18.936;2023-07-09T08:16:21;99038.31;;;24.71;45.22
40117;BME280;25829;50.228;18.936;2023-07-09T08:19:23;99039.00;;;24.82;45.59
40117;BME280;25829;50.228;18.936;2023-07-09T08:22:24;99035.13;;;24.93;45.17
40117;BME280;25829;50.228;18.936;2023-07-09T08:25:25;99031.19;;;25.05;45.04
40117;BME280;25829;50.228;18.936;2023-07-09T08:28:25;99023.69;;;25.20;44.16
40117;BME280;25829;50.228;18.936;2023-07-09T08:31:26;99027.03;;;25.36;43.20
40117;BME280;25829;50.228;18.936;2023-07-09T08:34:27;99028.06;;;25.59;42.93
40117;BME280;25829;50.228;18.936;2023-07-09T08:37:28;99023.38;;;25.84;42.92
40117;BME280;25829;50.228;18.936;2023-07-09T08:40:29;99023.47;;;26.11;41.63
40117;BME280;25829;50.228;18.936;2023-07-09T08:43:49;99019.06;;;26.62;40.99
40117;BME280;25829;50.228;18.936;2023-07-09T08:47:06;99019.75;;;27.59;40.77
40117;BME280;25829;50.228;18.936;2023-07-09T08:50:13;99016.63;;;28.64;39.64
40117;BME280;25829;50.228;18.936;2023-07-09T08:53:28;99019.69;;;29.63;37.16
40117;BME280;25829;50.228;18.936;2023-07-09T08:56:32;99020.78;;;30.61;37.66
40117;BME280;25829;50.228;18.936;2023-07-09T08:59:34;99022.56;;;31.46;37.10
40117;BME280;25829;50.228;18.936;2023-07-09T09:02:39;99020.81;;;32.17;35.34
40117;BME280;25829;50.228;18.936;2023-07-09T09:05:45;99021.25;;;32.89;35.23
40117;BME280;25829;50.228;18.936;2023-07-09T09:12:20;99017.22;;;34.20;32.99
40117;BME280;25829;50.228;18.936;2023-07-09T09:15:22;99019.63;;;34.69;34.13
40117;BME280;25829;50.228;18.936;2023-07-09T09:18:26;99015.59;;;35.14;33.22
40117;BME280;25829;50.228;18.936;2023-07-09T09:21:33;99007.19;;;35.42;32.15
40117;BME280;25829;50.228;18.936;2023-07-09T09:24:39;99005.81;;;35.71;32.21
40117;BME280;25829;50.228;18.936;2023-07-09T09:27:42;99010.47;;;36.09;31.93
40117;BME280;25829;50.228;18.936;2023-07-09T09:30:43;99001.22;;;36.40;30.99
40117;BME280;25829;50.228;18.936;2023-07-09T09:33:45;99007.41;;;36.60;30.33
40117;BME280;25829;50.228;18.936;2023-07-09T09:36:47;99014.03;;;36.79;30.37
40117;BME280;25829;50.228;18.936;2023-07-09T09:39:48;99010.00;;;36.99;29.94
40117;BME280;25829;50.228;18.936;2023-07-09T09:42:53;99003.91;;;37.13;27.48
40117;BME280;25829;50.228;18.936;2023-07-09T09:45:54;99009.31;;;37.09;28.34
40117;BME280;25829;50.228;18.936;2023-07-09T09:48:59;99005.69;;;37.02;27.21
40117;BME280;25829;50.228;18.936;2023-07-09T09:52:03;99005.34;;;36.77;28.72
40117;BME280;25829;50.228;18.936;2023-07-09T09:55:20;99013.47;;;36.46;23.62
40117;BME280;25829;50.228;18.936;2023-07-09T09:58:30;99018.00;;;35.73;25.89
40117;BME280;25829;50.228;18.936;2023-07-09T10:01:36;99004.72;;;35.01;25.58
40117;BME280;25829;50.228;18.936;2023-07-09T10:04:59;99006.78;;;34.25;28.18
40117;BME280;25829;50.228;18.936;2023-07-09T10:08:09;99007.75;;;33.73;27.50
40117;BME280;25829;50.228;18.936;2023-07-09T10:11:44;99007.94;;;33.12;25.98
40117;BME280;25829;50.228;18.936;2023-07-09T10:15:02;99011.56;;;32.55;27.47
40117;BME280;25829;50.228;18.936;2023-07-09T10:25:13;99003.69;;;31.62;27.23
40117;BME280;25829;50.228;18.936;2023-07-09T10:34:57;99000.03;;;30.86;27.44
40117;BME280;25829;50.228;18.936;2023-07-09T10:38:05;99006.72;;;30.59;28.88
40117;BME280;25829;50.228;18.936;2023-07-09T10:41:11;98996.34;;;30.44;28.76
40117;BME280;25829;50.228;18.936;2023-07-09T10:44:21;98997.22;;;30.18;27.59
40117;BME280;25829;50.228;18.936;2023-07-09T10:47:33;99004.34;;;29.93;28.06
40117;BME280;25829;50.228;18.936;2023-07-09T10:50:41;98992.34;;;29.68;27.34
40117;BME280;25829;50.228;18.936;2023-07-09T10:57:17;98997.78;;;29.42;28.02
40117;BME280;25829;50.228;18.936;2023-07-09T11:00:37;98992.00;;;29.35;29.13
40117;BME280;25829;50.228;18.936;2023-07-09T11:04:00;98989.94;;;29.23;26.14
40117;BME280;25829;50.228;18.936;2023-07-09T11:07:05;98994.22;;;29.07;28.38
40117;BME280;25829;50.228;18.936;2023-07-09T11:10:53;98991.97;;;29.00;26.74
40117;BME280;25829;50.228;18.936;2023-07-09T11:14:01;98976.00;;;28.99;28.07
40117;BME280;25829;50.228;18.936;2023-07-09T11:17:08;98979.50;;;28.99;28.65
40117;BME280;25829;50.228;18.936;2023-07-09T11:20:24;98978.72;;;28.99;28.08
40117;BME280;25829;50.228;18.936;2023-07-09T11:23:26;98975.66;;;29.00;29.30
40117;BME280;25829;50.228;18.936;2023-07-09T11:26:47;98979.97;;;29.02;28.66
40117;BME280;25829;50.228;18.936;2023-07-09T11:29:56;98970.25;;;29.00;28.97
40117;BME280;25829;50.228;18.936;2023-07-09T11:33:17;98972.00;;;28.96;27.17
40117;BME280;25829;50.228;18.936;2023-07-09T11:36:27;98985.88;;;28.95;28.27
40117;BME280;25829;50.228;18.936;2023-07-09T11:39:31;98983.31;;;28.98;28.49
40117;BME280;25829;50.228;18.936;2023-07-09T11:42:54;98976.97;;;29.03;27.89
40117;BME280;25829;50.228;18.936;2023-07-09T11:45:59;98980.97;;;29.06;28.27
40117;BME280;25829;50.228;18.936;2023-07-09T11:49:03;98970.25;;;29.00;28.50
40117;BME280;25829;50.228;18.936;2023-07-09T11:52:06;98966.88;;;28.95;28.46
40117;BME280;25829;50.228;18.936;2023-07-09T11:55:27;98968.78;;;28.86;28.24
40117;BME280;25829;50.228;18.936;2023-07-09T11:58:29;98964.16;;;28.86;29.35
40117;BME280;25829;50.228;18.936;2023-07-09T12:01:43;98970.38;;;28.87;28.85
40117;BME280;25829;50.228;18.936;2023-07-09T12:04:48;98961.44;;;28.86;29.25
40117;BME280;25829;50.228;18.936;2023-07-09T12:07:49;98964.94;;;28.87;29.53
40117;BME280;25829;50.228;18.936;2023-07-09T12:10:50;98969.59;;;28.86;29.49
40117;BME280;25829;50.228;18.936;2023-07-09T12:13:52;98957.44;;;28.84;28.62
40117;BME280;25829;50.228;18.936;2023-07-09T12:16:53;98948.44;;;28.74;28.49
40117;BME280;25829;50.228;18.936;2023-07-09T12:19:54;98952.09;;;28.61;28.33
40117;BME280;25829;50.228;18.936;2023-07-09T12:22:55;98941.03;;;28.49;28.95
40117;BME280;25829;50.228;18.936;2023-07-09T12:26:00;98937.97;;;28.42;29.22
40117;BME280;25829;50.228;18.936;2023-07-09T12:29:04;98948.53;;;28.43;29.30
40117;BME280;25829;50.228;18.936;2023-07-09T12:32:13;98938.94;;;28.46;28.89
40117;BME280;25829;50.228;18.936;2023-07-09T12:35:15;98930.16;;;28.49;29.18
40117;BME280;25829;50.228;18.936;2023-07-09T12:38:20;98922.34;;;28.56;29.13
40117;BME280;25829;50.228;18.936;2023-07-09T12:41:40;98921.59;;;28.64;28.54
40117;BME280;25829;50.228;18.936;2023-07-09T12:44:43;98921.28;;;28.66;28.88
40117;BME280;25829;50.228;18.936;2023-07-09T12:47:47;98923.81;;;28.62;28.45
40117;BME280;25829;50.228;18.936;2023-07-09T12:50:50;98909.91;;;28.55;29.21
40117;BME280;25829;50.228;18.936;2023-07-09T12:54:05;98922.34;;;28.56;29.33
40117;BME280;25829;50.228;18.936;2023-07-09T12:57:15;98912.97;;;28.62;30.01
40117;BME280;25829;50.228;18.936;2023-07-09T13:00:18;98915.50;;;28.67;30.02
40117;BME280;25829;50.228;18.936;2023-07-09T13:03:28;98911.88;;;28.72;29.75
40117;BME280;25829;50.228;18.936;2023-07-09T13:06:35;98909.16;;;28.72;29.04
40117;BME280;25829;50.228;18.936;2023-07-09T13:09:37;98913.13;;;28.66;29.47
40117;BME280;25829;50.228;18.936;2023-07-09T13:12:51;98909.00;;;28.68;29.52
40117;BME280;25829;50.228;18.936;2023-07-09T13:15:57;98909.00;;;28.68;28.92
40117;BME280;25829;50.228;18.936;2023-07-09T13:19:01;98896.03;;;28.65;29.36
40117;BME280;25829;50.228;18.936;2023-07-09T13:22:04;98902.44;;;28.69;29.21
40117;BME280;25829;50.228;18.936;2023-07-09T13:25:08;98899.88;;;28.73;29.13
40117;BME280;25829;50.228;18.936;2023-07-09T13:28:23;98897.50;;;28.71;28.05
40117;BME280;25829;50.228;18.936;2023-07-09T13:31:27;98901.81;;;28.72;28.91
40117;BME280;25829;50.228;18.936;2023-07-09T13:34:33;98902.47;;;28.78;29.22
40117;BME280;25829;50.228;18.936;2023-07-09T13:37:34;98892.25;;;28.84;29.27
40117;BME280;25829;50.228;18.936;2023-07-09T13:40:35;98893.53;;;28.86;29.44
40117;BME280;25829;50.228;18.936;2023-07-09T13:43:36;98894.81;;;28.89;28.81
40117;BME280;25829;50.228;18.936;2023-07-09T13:46:37;98886.19;;;28.87;28.71
40117;BME280;25829;50.228;18.936;2023-07-09T13:49:38;98892.25;;;28.84;28.33
40117;BME280;25829;50.228;18.936;2023-07-09T13:52:40;98887.44;;;28.81;28.49
40117;BME280;25829;50.228;18.936;2023-07-09T13:55:41;98891.09;;;28.76;28.63
40117;BME280;25829;50.228;18.936;2023-07-09T13:58:42;98889.19;;;28.76;28.78
40117;BME280;25829;50.228;18.936;2023-07-09T14:01:44;98880.41;;;28.80;28.62
40117;BME280;25829;50.228;18.936;2023-07-09T14:04:45;98882.31;;;28.79;28.58
40117;BME280;25829;50.228;18.936;2023-07-09T14:07:46;98883.91;;;28.80;28.23
40117;BME280;25829;50.228;18.936;2023-07-09T14:10:47;98876.09;;;28.79;28.20
40117;BME280;25829;50.228;18.936;2023-07-09T14:13:48;98886.81;;;28.75;27.48
40117;BME280;25829;50.228;18.936;2023-07-09T14:16:50;98882.13;;;28.67;27.76
40117;BME280;25829;50.228;18.936;2023-07-09T14:19:52;98880.38;;;28.62;27.79
40117;BME280;25829;50.228;18.936;2023-07-09T14:22:53;98876.06;;;28.61;28.24
40117;BME280;25829;50.228;18.936;2023-07-09T14:25:53;98885.81;;;28.62;28.22
40117;BME280;25829;50.228;18.936;2023-07-09T14:28:54;98879.25;;;28.63;28.05
40117;BME280;25829;50.228;18.936;2023-07-09T14:31:57;98876.06;;;28.61;28.17
40117;BME280;25829;50.228;18.936;2023-07-09T14:34:58;98867.94;;;28.61;28.04
40117;BME280;25829;50.228;18.936;2023-07-09T14:37:59;98871.59;;;28.65;28.06
40117;BME280;25829;50.228;18.936;2023-07-09T14:41:07;98869.84;;;28.69;28.05
40117;BME280;25829;50.228;18.936;2023-07-09T14:44:24;98872.56;;;28.69;28.04
40117;BME280;25829;50.228;18.936;2023-07-09T14:47:25;98866.19;;;28.65;28.07
40117;BME280;25829;50.228;18.936;2023-07-09T14:50:28;98868.41;;;28.63;28.22
40117;BME280;25829;50.228;18.936;2023-07-09T14:53:29;98862.19;;;28.63;28.40
40117;BME280;25829;50.228;18.936;2023-07-09T14:56:29;98870.31;;;28.63;28.33
40117;BME280;25829;50.228;18.936;2023-07-09T14:59:30;98858.19;;;28.60;28.56
40117;BME280;25829;50.228;18.936;2023-07-09T15:02:36;98867.13;;;28.61;28.45
40117;BME280;25829;50.228;18.936;2023-07-09T15:05:37;98865.06;;;28.58;28.80
40117;BME280;25829;50.228;18.936;2023-07-09T15:08:38;98859.47;;;28.54;28.84
40117;BME280;25829;50.228;18.936;2023-07-09T15:11:38;98861.34;;;28.45;28.71
40117;BME280;25829;50.228;18.936;2023-07-09T15:14:39;98857.03;;;28.35;28.68
40117;BME280;25829;50.228;18.936;2023-07-09T15:17:40;98853.50;;;28.26;28.87
40117;BME280;25829;50.228;18.936;2023-07-09T15:20:47;98854.72;;;28.20;29.05
40117;BME280;25829;50.228;18.936;2023-07-09T15:23:48;98845.91;;;28.14;28.83
40117;BME280;25829;50.228;18.936;2023-07-09T15:26:51;98840.50;;;28.14;28.65
40117;BME280;25829;50.228;18.936;2023-07-09T15:29:56;98846.72;;;28.15;28.56
40117;BME280;25829;50.228;18.936;2023-07-09T15:32:58;98844.00;;;28.15;28.50
40117;BME280;25829;50.228;18.936;2023-07-09T15:35:59;98851.34;;;28.14;28.52
40117;BME280;25829;50.228;18.936;2023-07-09T15:39:00;98849.75;;;28.13;28.73
40117;BME280;25829;50.228;18.936;2023-07-09T15:42:01;98856.59;;;28.11;28.92
40117;BME280;25829;50.228;18.936;2023-07-09T15:45:02;98854.22;;;28.09;28.83
40117;BME280;25829;50.228;18.936;2023-07-09T15:48:04;98847.00;;;28.04;28.80
40117;BME280;25829;50.228;18.936;2023-07-09T15:51:05;98842.84;;;27.98;28.53
40117;BME280;25829;50.228;18.936;2023-07-09T15:54:17;98845.56;;;27.98;27.93
40117;BME280;25829;50.228;18.936;2023-07-09T15:57:21;98838.06;;;27.95;28.56
40117;BME280;25829;50.228;18.936;2023-07-09T16:00:27;98838.69;;;27.92;28.77
40117;BME280;25829;50.228;18.936;2023-07-09T16:03:28;98831.78;;;27.86;28.87
40117;BME280;25829;50.228;18.936;2023-07-09T16:06:28;98837.03;;;27.82;28.84
40117;BME280;25829;50.228;18.936;2023-07-09T16:09:29;98833.53;;;27.82;28.97
40117;BME280;25829;50.228;18.936;2023-07-09T16:12:30;98828.09;;;27.82;28.89
40117;BME280;25829;50.228;18.936;2023-07-09T16:15:31;98838.16;;;27.81;28.84
40117;BME280;25829;50.228;18.936;2023-07-09T16:18:31;98823.13;;;27.75;28.76
40117;BME280;25829;50.228;18.936;2023-07-09T16:21:32;98828.06;;;27.73;28.75
40117;BME280;25829;50.228;18.936;2023-07-09T16:24:35;98828.38;;;27.72;28.79
40117;BME280;25829;50.228;18.936;2023-07-09T16:27:40;98828.22;;;27.68;28.71
40117;BME280;25829;50.228;18.936;2023-07-09T16:30:41;98830.38;;;27.66;28.67
40117;BME280;25829;50.228;18.936;2023-07-09T16:33:42;98837.25;;;27.64;28.40
40117;BME280;25829;50.228;18.936;2023-07-09T16:36:43;98832.75;;;27.59;27.83
40117;BME280;25829;50.228;18.936;2023-07-09T16:39:44;98841.50;;;27.56;27.70
40117;BME280;25829;50.228;18.936;2023-07-09T16:42:45;98831.28;;;27.53;27.56
40117;BME280;25829;50.228;18.936;2023-07-09T16:45:47;98828.38;;;27.49;27.43
40117;BME280;25829;50.228;18.936;2023-07-09T16:48:48;98827.13;;;27.47;27.31
40117;BME280;25829;50.228;18.936;2023-07-09T16:51:52;98832.03;;;27.45;27.40